createdAt,value
2023-03-22T00:03:45.559Z,8.91
2023-03-22T00:07:50.440Z,8.88
2023-03-22T00:11:52.384Z,8.86
2023-03-22T00:15:55.797Z,8.87
2023-03-22T00:19:58.457Z,8.89
2023-03-22T00:24:00.368Z,8.89
2023-03-22T00:28:02.110Z,8.88
2023-03-22T00:32:04.426Z,8.88
2023-03-22T00:36:11.157Z,8.88
2023-03-22T00:40:14.049Z,8.87
2023-03-22T00:44:15.795Z,8.87
2023-03-22T00:48:17.630Z,8.86
2023-03-22T00:52:19.459Z,8.84
2023-03-22T00:56:23.145Z,8.84
2023-03-22T01:00:37.177Z,8.84
2023-03-22T01:04:46.655Z,8.85
2023-03-22T01:08:50.914Z,8.84
2023-03-22T01:12:53.364Z,8.86
2023-03-22T01:16:57.693Z,8.86
2023-03-22T01:21:00.501Z,8.88
2023-03-22T01:25:03.036Z,8.87
2023-03-22T01:29:05.730Z,8.85
2023-03-22T01:33:07.892Z,8.81
2023-03-22T01:37:10.085Z,8.76
2023-03-22T01:41:16.864Z,8.73
2023-03-22T01:45:22.602Z,8.70
2023-03-22T01:49:32.427Z,8.70
2023-03-22T01:53:39.725Z,8.71
2023-03-22T01:57:43.963Z,8.73
2023-03-22T02:01:51.182Z,8.75
2023-03-22T02:05:54.489Z,8.77
2023-03-22T02:09:59.912Z,8.79
2023-03-22T02:14:18.701Z,8.80
2023-03-22T02:18:44.534Z,8.80
2023-03-22T02:23:37.389Z,8.82
2023-03-22T02:28:06.232Z,8.85
2023-03-22T02:32:36.111Z,8.88
2023-03-22T02:37:05.583Z,8.89
2023-03-22T02:41:14.637Z,8.90
2023-03-22T02:45:33.963Z,8.87
2023-03-22T02:49:48.110Z,8.86
2023-03-22T02:53:50.007Z,8.81
2023-03-22T02:57:58.272Z,8.78
2023-03-22T03:02:01.768Z,8.76
2023-03-22T03:06:13.268Z,8.73
2023-03-22T03:10:17.674Z,8.71
2023-03-22T03:14:21.887Z,8.70
2023-03-22T03:18:32.579Z,8.69
2023-03-22T03:23:02.432Z,8.69
2023-03-22T03:27:17.047Z,8.70
2023-03-22T03:31:45.243Z,8.70
2023-03-22T03:35:53.533Z,8.69
2023-03-22T03:39:59.978Z,8.70
2023-03-22T03:44:03.002Z,8.71
2023-03-22T03:48:10.896Z,8.72
2023-03-22T03:52:13.494Z,8.78
2023-03-22T03:56:15.465Z,8.83
2023-03-22T04:00:20.602Z,8.90
2023-03-22T04:04:42.645Z,8.96
2023-03-22T04:08:45.680Z,9.04
2023-03-22T04:12:50.380Z,9.08
2023-03-22T04:16:53.678Z,9.11
2023-03-22T04:20:57.359Z,9.13
2023-03-22T04:25:01.859Z,9.15
2023-03-22T04:29:04.915Z,9.17
2023-03-22T04:33:07.651Z,9.19
2023-03-22T04:37:45.810Z,9.22
2023-03-22T04:41:53.292Z,9.22
2023-03-22T04:45:58.381Z,9.25
2023-03-22T04:50:08.105Z,9.23
2023-03-22T04:54:17.243Z,9.21
2023-03-22T04:58:22.189Z,9.24
2023-03-22T05:02:24.484Z,9.24
2023-03-22T05:06:27.684Z,9.26
2023-03-22T05:10:45.888Z,9.27
2023-03-22T05:14:47.887Z,9.27
2023-03-22T05:18:55.950Z,9.28
2023-03-22T05:22:57.950Z,9.28
2023-03-22T05:27:03.793Z,9.28
2023-03-22T05:31:08.362Z,9.27
2023-03-22T05:35:19.274Z,9.25
2023-03-22T05:39:26.776Z,9.22
2023-03-22T05:43:29.170Z,9.20
2023-03-22T05:47:31.044Z,9.17
2023-03-22T05:51:44.298Z,9.14
2023-03-22T05:55:49.240Z,9.14
2023-03-22T05:59:54.133Z,9.16
2023-03-22T06:04:02.209Z,9.18
2023-03-22T06:08:11.190Z,9.19
2023-03-22T06:12:16.174Z,9.23
2023-03-22T06:16:21.970Z,9.29
2023-03-22T06:20:23.762Z,9.33
2023-03-22T06:24:31.237Z,9.36
2023-03-22T06:28:33.261Z,9.39
2023-03-22T06:32:36.673Z,9.43
2023-03-22T06:36:38.923Z,9.44
2023-03-22T06:40:45.827Z,9.44
2023-03-22T06:44:48.020Z,9.44
2023-03-22T06:48:59.904Z,9.45
2023-03-22T06:53:01.829Z,9.46
2023-03-22T06:57:03.884Z,9.50
2023-03-22T07:01:05.687Z,9.57
2023-03-22T07:05:09.146Z,9.63
2023-03-22T07:09:11.535Z,9.66
2023-03-22T07:13:13.596Z,9.70
2023-03-22T07:17:15.720Z,9.71
2023-03-22T07:21:17.570Z,9.74
2023-03-22T07:25:24.424Z,9.73
2023-03-22T07:29:35.013Z,9.75
2023-03-22T07:33:38.355Z,9.78
2023-03-22T07:37:40.650Z,9.81
2023-03-22T07:41:52.225Z,9.84
2023-03-22T07:46:16.552Z,9.86
2023-03-22T07:50:31.719Z,9.89
2023-03-22T07:54:35.610Z,9.93
2023-03-22T07:58:40.011Z,9.96
2023-03-22T08:02:45.937Z,9.96
2023-03-22T08:07:00.820Z,9.98
2023-03-22T08:11:07.398Z,10.01
2023-03-22T08:15:10.368Z,10.02
2023-03-22T08:19:12.558Z,10.00
2023-03-22T08:23:16.337Z,9.92
2023-03-22T08:27:36.890Z,9.83
2023-03-22T08:31:38.945Z,9.73
2023-03-22T08:35:41.539Z,9.63
2023-03-22T08:39:44.255Z,9.58
2023-03-22T08:44:09.085Z,9.54
2023-03-22T08:48:11.195Z,9.54
2023-03-22T08:52:33.605Z,9.53
2023-03-22T08:56:46.250Z,9.52
2023-03-22T09:01:05.564Z,9.49
2023-03-22T09:05:23.350Z,9.46
2023-03-22T09:09:25.431Z,9.45
2023-03-22T09:13:31.230Z,9.43
2023-03-22T09:17:36.530Z,9.44
2023-03-22T09:21:38.579Z,9.44
2023-03-22T09:25:48.857Z,9.45
2023-03-22T09:29:55.762Z,9.47
2023-03-22T09:33:58.554Z,9.51
2023-03-22T09:38:01.116Z,9.53
2023-03-22T09:42:05.674Z,9.55
2023-03-22T09:46:14.472Z,9.52
2023-03-22T09:50:21.913Z,9.51
2023-03-22T09:54:32.016Z,9.53
2023-03-22T09:58:44.344Z,9.57
2023-03-22T10:02:46.065Z,9.56
2023-03-22T10:06:55.362Z,9.56
2023-03-22T10:10:58.985Z,9.54
2023-03-22T10:15:06.510Z,9.54
2023-03-22T10:19:20.049Z,9.56
2023-03-22T10:23:46.900Z,9.58
2023-03-22T10:27:50.757Z,9.67
2023-03-22T10:31:54.190Z,9.75
2023-03-22T10:35:57.072Z,9.77
2023-03-22T10:40:02.480Z,9.82
2023-03-22T10:44:06.717Z,9.86
2023-03-22T10:48:22.880Z,9.95
2023-03-22T10:52:31.302Z,10.01
2023-03-22T10:56:33.028Z,10.02
2023-03-22T11:00:37.213Z,10.03
2023-03-22T11:04:48.072Z,10.07
2023-03-22T11:08:54.096Z,10.13
2023-03-22T11:13:19.525Z,10.18
2023-03-22T11:17:25.966Z,10.18
2023-03-22T11:21:33.364Z,10.17
2023-03-22T11:25:38.148Z,10.15
2023-03-22T11:29:44.081Z,10.13
2023-03-22T11:34:00.779Z,10.14
2023-03-22T11:38:02.966Z,10.15
2023-03-22T11:42:06.499Z,10.16
2023-03-22T11:46:08.995Z,10.17
2023-03-22T11:50:32.643Z,10.17
2023-03-22T11:54:36.289Z,10.18
2023-03-22T11:59:08.845Z,10.18
2023-03-22T12:03:16.824Z,10.19
2023-03-22T12:07:24.813Z,10.21
2023-03-22T12:11:33.671Z,10.23
2023-03-22T12:15:40.555Z,10.26
2023-03-22T12:20:07.512Z,10.31
2023-03-22T12:24:26.156Z,10.36
2023-03-22T12:28:40.709Z,10.40
2023-03-22T12:32:49.038Z,10.43
2023-03-22T12:36:56.960Z,10.48
2023-03-22T12:41:02.483Z,10.52
2023-03-22T12:45:18.101Z,10.55
2023-03-22T12:49:33.088Z,10.58
2023-03-22T12:53:42.757Z,10.59
2023-03-22T12:57:44.929Z,10.63
2023-03-22T13:01:53.956Z,10.66
2023-03-22T13:06:08.065Z,10.68
2023-03-22T13:10:31.041Z,10.72
2023-03-22T13:14:51.188Z,10.74
2023-03-22T13:18:53.129Z,10.76
2023-03-22T13:22:54.799Z,10.77
2023-03-22T13:26:59.249Z,10.79
2023-03-22T13:31:01.639Z,10.80
2023-03-22T13:35:04.019Z,10.83
2023-03-22T13:39:12.400Z,10.87
2023-03-22T13:43:17.140Z,10.88
2023-03-22T13:47:32.284Z,10.91
2023-03-22T13:51:34.324Z,10.93
2023-03-22T13:56:03.693Z,10.95
2023-03-22T14:00:41.631Z,10.96
2023-03-22T14:05:05.724Z,10.98
2023-03-22T14:09:25.375Z,10.97
2023-03-22T14:13:35.397Z,10.99
2023-03-22T14:17:54.288Z,10.98
2023-03-22T14:54:59.509Z,11.02
2023-03-22T14:59:03.660Z,10.96
2023-03-22T15:03:15.943Z,10.90
2023-03-22T15:07:20.013Z,10.90
2023-03-22T15:11:22.581Z,10.90
2023-03-22T15:15:30.593Z,10.89
2023-03-22T15:19:43.288Z,10.91
2023-03-22T15:23:52.113Z,10.92
2023-03-22T15:27:54.085Z,10.92
2023-03-22T15:31:57.399Z,10.87
2023-03-22T15:35:59.703Z,10.83
2023-03-22T15:40:02.483Z,10.80
2023-03-22T15:44:21.850Z,10.77
2023-03-22T15:48:29.909Z,10.73
2023-03-22T15:52:33.000Z,10.69
2023-03-22T15:56:40.422Z,10.66
2023-03-22T16:00:43.920Z,10.64
2023-03-22T16:04:45.904Z,10.61
2023-03-22T16:08:47.911Z,10.60
2023-03-22T16:12:50.156Z,10.64
2023-03-22T16:16:52.108Z,10.68
2023-03-22T16:20:55.437Z,10.68
2023-03-22T16:25:01.983Z,10.66
2023-03-22T16:29:03.808Z,10.66
2023-03-22T16:33:06.062Z,10.65
2023-03-22T16:37:15.232Z,10.62
2023-03-22T16:41:28.975Z,10.60
2023-03-22T16:45:33.294Z,10.60
2023-03-22T16:49:35.167Z,10.60
2023-03-22T16:53:40.429Z,10.60
2023-03-22T16:57:42.544Z,10.61
2023-03-22T17:01:44.996Z,10.62
2023-03-22T17:05:46.907Z,10.64
2023-03-22T17:09:48.794Z,10.67
2023-03-22T17:13:52.849Z,10.69
2023-03-22T17:17:54.766Z,10.70
2023-03-22T17:21:56.608Z,10.70
2023-03-22T17:26:01.726Z,10.71
2023-03-22T17:30:04.015Z,10.70
2023-03-22T17:34:05.878Z,10.71
2023-03-22T17:38:08.983Z,10.70
2023-03-22T17:42:15.225Z,10.69
2023-03-22T17:46:58.350Z,10.66
2023-03-22T17:50:39.137Z,10.63
2023-03-22T17:55:07.540Z,10.61
2023-03-22T17:59:03.241Z,10.58
2023-03-22T18:03:05.300Z,10.58
2023-03-22T18:07:07.307Z,10.56
2023-03-22T18:11:09.251Z,10.55
2023-03-22T18:15:13.352Z,10.53
2023-03-22T18:19:15.598Z,10.53
2023-03-22T18:23:17.480Z,10.52
2023-03-22T18:27:19.692Z,10.53
2023-03-22T18:31:22.708Z,10.55
2023-03-22T18:35:24.778Z,10.56
2023-03-22T18:43:37.042Z,10.60
2023-03-22T18:47:39.026Z,10.61
2023-03-22T18:52:19.062Z,10.63
2023-03-22T18:56:06.790Z,10.63
2023-03-22T19:00:11.471Z,10.62
2023-03-22T19:04:15.579Z,10.61
2023-03-22T19:08:27.202Z,10.60
2023-03-22T19:12:31.103Z,10.58
2023-03-22T19:16:33.088Z,10.53
2023-03-22T19:20:40.002Z,10.52
2023-03-22T19:24:42.402Z,10.51
2023-03-22T19:28:44.271Z,10.49
2023-03-22T19:33:02.301Z,10.50
2023-03-22T19:37:08.350Z,10.51
2023-03-22T19:45:15.724Z,10.48
2023-03-22T19:49:18.993Z,10.50
2023-03-22T19:54:01.004Z,10.53
2023-03-22T19:57:43.528Z,10.55
2023-03-22T20:01:45.380Z,10.58
2023-03-22T20:05:50.789Z,10.60
2023-03-22T20:09:53.334Z,10.62
2023-03-22T20:13:55.840Z,10.64
2023-03-22T20:17:57.714Z,10.65
2023-03-22T20:21:59.622Z,10.67
2023-03-22T20:26:04.703Z,10.71
2023-03-22T20:30:08.835Z,10.75
2023-03-22T20:34:11.090Z,10.79
2023-03-22T20:38:13.825Z,10.83
2023-03-22T20:42:16.430Z,10.86
2023-03-22T20:46:18.440Z,10.85
2023-03-22T20:50:20.456Z,10.86
2023-03-22T20:58:25.107Z,10.88
2023-03-22T21:02:27.294Z,10.89
2023-03-22T21:06:29.249Z,10.92
2023-03-22T21:10:31.567Z,10.95
2023-03-22T21:14:33.712Z,10.96
2023-03-22T21:18:35.844Z,10.97
2023-03-22T21:22:37.659Z,10.99
2023-03-22T21:26:39.588Z,10.99
2023-03-22T21:30:41.739Z,10.99
2023-03-22T21:34:43.719Z,11.00
2023-03-22T21:38:50.140Z,11.01
2023-03-22T21:42:58.563Z,11.01
2023-03-22T21:47:05.881Z,11.03
2023-03-22T21:51:08.229Z,11.03
2023-03-22T21:55:10.372Z,11.06
2023-03-22T21:59:12.748Z,11.05
2023-03-22T22:03:14.911Z,11.01
2023-03-22T22:07:20.847Z,11.00
2023-03-22T22:11:22.757Z,10.98
2023-03-22T22:15:26.735Z,10.97
2023-03-22T22:19:29.513Z,10.95
2023-03-22T22:23:32.597Z,10.95
2023-03-22T22:27:35.536Z,10.95
2023-03-22T22:31:37.479Z,10.96
2023-03-22T22:35:39.518Z,10.99
2023-03-22T22:39:41.959Z,11.02
2023-03-22T22:43:45.747Z,11.06
2023-03-22T22:47:47.634Z,11.11
2023-03-22T22:51:49.681Z,11.12
2023-03-22T22:55:51.485Z,11.16
2023-03-22T22:59:54.829Z,11.18
2023-03-22T23:03:56.636Z,11.21
2023-03-22T23:07:58.600Z,11.23
2023-03-22T23:12:01.192Z,11.27
2023-03-22T23:16:03.664Z,11.28
2023-03-22T23:20:13.376Z,11.31
2023-03-22T23:24:15.555Z,11.32
2023-03-22T23:28:21.623Z,11.31
2023-03-22T23:32:23.626Z,11.32
2023-03-22T23:36:32.923Z,11.32
2023-03-22T23:40:37.091Z,11.33
2023-03-22T23:44:39.364Z,11.35
2023-03-22T23:48:43.605Z,11.36
2023-03-22T23:52:46.121Z,11.38
2023-03-22T23:56:47.999Z,11.38
